Terminal Aerodrome Forecast
Issued by NWS Boston, MA

Home | Current Version | Previous Version | Text Only | Print | Product List | Glossary Off
Versions: 1 2 3 4 5 6 7 8 9 10 11 12 13 14 15 16 17
000 FTUS41 KBOX 290112 AAA TAFORH TAF AMD KORH 290112Z 2901/2924 05011KT P6SM SCT012 OVC020 FM290600 05012KT P6SM BKN010 FM291400 05010G18KT P6SM BKN020 FM291800 06010G18KT P6SM -DZ BKN200 FM291900 06010G18KT P6SM BKN200=

USA.gov is the U.S. government's official web portal to all federal, state and local government web resources and services.